sensor_id;sensor_type;location;lat;lon;timestamp;P1;durP1;ratioP1;P2;durP2;ratioP2
4575;SDS011;2300;51.874;8.430;2023-07-20T00:01:30;29.70;;;24.02;;
4575;SDS011;2300;51.874;8.430;2023-07-20T00:03:56;27.00;;;23.42;;
4575;SDS011;2300;51.874;8.430;2023-07-20T00:06:23;26.70;;;23.02;;
4575;SDS011;2300;51.874;8.430;2023-07-20T00:08:52;26.45;;;23.55;;
4575;SDS011;2300;51.874;8.430;2023-07-20T00:11:19;29.95;;;23.98;;
4575;SDS011;2300;51.874;8.430;2023-07-20T00:13:46;26.38;;;23.30;;
4575;SDS011;2300;51.874;8.430;2023-07-20T00:16:14;26.63;;;23.83;;
4575;SDS011;2300;51.874;8.430;2023-07-20T00:18:40;26.58;;;23.35;;
4575;SDS011;2300;51.874;8.430;2023-07-20T00:21:07;30.63;;;23.33;;
4575;SDS011;2300;51.874;8.430;2023-07-20T00:23:33;29.45;;;22.52;;
4575;SDS011;2300;51.874;8.430;2023-07-20T00:26:00;29.15;;;23.77;;
4575;SDS011;2300;51.874;8.430;2023-07-20T00:28:27;27.88;;;24.08;;
4575;SDS011;2300;51.874;8.430;2023-07-20T00:30:53;27.10;;;24.23;;
4575;SDS011;2300;51.874;8.430;2023-07-20T00:33:21;26.70;;;23.85;;
4575;SDS011;2300;51.874;8.430;2023-07-20T00:35:48;30.38;;;24.30;;
4575;SDS011;2300;51.874;8.430;2023-07-20T00:38:14;29.10;;;23.70;;
4575;SDS011;2300;51.874;8.430;2023-07-20T00:40:41;27.67;;;24.58;;
4575;SDS011;2300;51.874;8.430;2023-07-20T00:43:08;26.05;;;22.25;;
4575;SDS011;2300;51.874;8.430;2023-07-20T00:45:34;24.55;;;21.83;;
4575;SDS011;2300;51.874;8.430;2023-07-20T00:48:03;27.00;;;21.98;;
4575;SDS011;2300;51.874;8.430;2023-07-20T00:50:32;26.58;;;21.95;;
4575;SDS011;2300;51.874;8.430;2023-07-20T00:52:59;30.77;;;21.67;;
4575;SDS011;2300;51.874;8.430;2023-07-20T00:55:30;24.58;;;21.67;;
4575;SDS011;2300;51.874;8.430;2023-07-20T00:57:56;28.65;;;21.08;;
4575;SDS011;2300;51.874;8.430;2023-07-20T01:00:23;27.77;;;20.40;;
4575;SDS011;2300;51.874;8.430;2023-07-20T01:02:50;25.50;;;21.85;;
4575;SDS011;2300;51.874;8.430;2023-07-20T01:05:17;25.92;;;21.35;;
4575;SDS011;2300;51.874;8.430;2023-07-20T01:07:46;28.40;;;21.95;;
4575;SDS011;2300;51.874;8.430;2023-07-20T01:10:20;28.67;;;22.90;;
4575;SDS011;2300;51.874;8.430;2023-07-20T01:12:51;30.98;;;22.73;;
4575;SDS011;2300;51.874;8.430;2023-07-20T01:15:19;26.00;;;22.92;;
4575;SDS011;2300;51.874;8.430;2023-07-20T01:17:45;28.98;;;23.58;;
4575;SDS011;2300;51.874;8.430;2023-07-20T01:20:12;30.55;;;23.58;;
4575;SDS011;2300;51.874;8.430;2023-07-20T01:22:52;32.50;;;25.35;;
4575;SDS011;2300;51.874;8.430;2023-07-20T01:25:34;30.58;;;25.42;;
4575;SDS011;2300;51.874;8.430;2023-07-20T01:31:23;29.83;;;25.63;;
4575;SDS011;2300;51.874;8.430;2023-07-20T01:33:51;31.98;;;26.13;;
4575;SDS011;2300;51.874;8.430;2023-07-20T01:36:21;34.85;;;27.13;;
4575;SDS011;2300;51.874;8.430;2023-07-20T01:38:49;36.45;;;27.52;;
4575;SDS011;2300;51.874;8.430;2023-07-20T01:41:17;40.28;;;29.83;;
4575;SDS011;2300;51.874;8.430;2023-07-20T01:43:44;35.42;;;28.77;;
4575;SDS011;2300;51.874;8.430;2023-07-20T01:46:12;38.28;;;30.70;;
4575;SDS011;2300;51.874;8.430;2023-07-20T01:48:39;38.97;;;30.58;;
4575;SDS011;2300;51.874;8.430;2023-07-20T01:51:06;38.28;;;30.42;;
4575;SDS011;2300;51.874;8.430;2023-07-20T01:53:32;42.05;;;30.15;;
4575;SDS011;2300;51.874;8.430;2023-07-20T01:55:59;37.13;;;29.48;;
4575;SDS011;2300;51.874;8.430;2023-07-20T01:58:26;36.58;;;30.75;;
4575;SDS011;2300;51.874;8.430;2023-07-20T02:00:52;36.95;;;30.17;;
4575;SDS011;2300;51.874;8.430;2023-07-20T02:03:19;37.45;;;30.73;;
4575;SDS011;2300;51.874;8.430;2023-07-20T02:05:48;37.08;;;30.80;;
4575;SDS011;2300;51.874;8.430;2023-07-20T02:08:15;39.47;;;30.05;;
4575;SDS011;2300;51.874;8.430;2023-07-20T02:10:44;41.03;;;31.23;;
4575;SDS011;2300;51.874;8.430;2023-07-20T02:13:11;39.65;;;30.88;;
4575;SDS011;2300;51.874;8.430;2023-07-20T02:15:38;39.40;;;31.73;;
4575;SDS011;2300;51.874;8.430;2023-07-20T02:18:05;39.53;;;31.77;;
4575;SDS011;2300;51.874;8.430;2023-07-20T02:20:32;39.65;;;32.25;;
4575;SDS011;2300;51.874;8.430;2023-07-20T02:23:00;40.90;;;31.27;;
4575;SDS011;2300;51.874;8.430;2023-07-20T02:25:26;42.13;;;31.75;;
4575;SDS011;2300;51.874;8.430;2023-07-20T02:27:53;39.35;;;31.05;;
4575;SDS011;2300;51.874;8.430;2023-07-20T02:30:20;38.10;;;30.45;;
4575;SDS011;2300;51.874;8.430;2023-07-20T02:32:46;39.83;;;31.20;;
4575;SDS011;2300;51.874;8.430;2023-07-20T02:35:13;37.42;;;31.55;;
4575;SDS011;2300;51.874;8.430;2023-07-20T02:37:40;44.58;;;32.70;;
4575;SDS011;2300;51.874;8.430;2023-07-20T02:40:09;44.00;;;31.90;;
4575;SDS011;2300;51.874;8.430;2023-07-20T02:42:36;42.13;;;32.70;;
4575;SDS011;2300;51.874;8.430;2023-07-20T02:45:03;42.40;;;31.60;;
4575;SDS011;2300;51.874;8.430;2023-07-20T02:47:30;42.40;;;32.03;;
4575;SDS011;2300;51.874;8.430;2023-07-20T02:49:57;39.50;;;31.20;;
4575;SDS011;2300;51.874;8.430;2023-07-20T02:52:23;38.55;;;31.08;;
4575;SDS011;2300;51.874;8.430;2023-07-20T02:54:50;37.65;;;30.58;;
4575;SDS011;2300;51.874;8.430;2023-07-20T02:57:18;37.60;;;30.50;;
4575;SDS011;2300;51.874;8.430;2023-07-20T02:59:45;39.20;;;32.15;;
4575;SDS011;2300;51.874;8.430;2023-07-20T03:02:11;39.67;;;31.85;;
4575;SDS011;2300;51.874;8.430;2023-07-20T03:04:38;42.38;;;32.63;;
4575;SDS011;2300;51.874;8.430;2023-07-20T03:07:04;40.92;;;33.75;;
4575;SDS011;2300;51.874;8.430;2023-07-20T03:09:32;45.80;;;33.90;;
4575;SDS011;2300;51.874;8.430;2023-07-20T03:11:58;47.47;;;34.40;;
4575;SDS011;2300;51.874;8.430;2023-07-20T03:14:27;43.42;;;33.65;;
4575;SDS011;2300;51.874;8.430;2023-07-20T03:16:54;47.03;;;35.15;;
4575;SDS011;2300;51.874;8.430;2023-07-20T03:19:20;46.72;;;35.42;;
4575;SDS011;2300;51.874;8.430;2023-07-20T03:21:47;51.70;;;34.90;;
4575;SDS011;2300;51.874;8.430;2023-07-20T03:24:13;54.58;;;35.03;;
4575;SDS011;2300;51.874;8.430;2023-07-20T03:26:40;49.03;;;34.33;;
4575;SDS011;2300;51.874;8.430;2023-07-20T03:29:06;49.78;;;35.13;;
4575;SDS011;2300;51.874;8.430;2023-07-20T03:31:34;47.17;;;33.72;;
4575;SDS011;2300;51.874;8.430;2023-07-20T03:34:01;51.20;;;35.17;;
4575;SDS011;2300;51.874;8.430;2023-07-20T03:36:28;44.30;;;35.08;;
4575;SDS011;2300;51.874;8.430;2023-07-20T03:38:54;44.47;;;35.30;;
4575;SDS011;2300;51.874;8.430;2023-07-20T03:41:21;46.10;;;33.65;;
4575;SDS011;2300;51.874;8.430;2023-07-20T03:43:47;54.40;;;36.92;;
4575;SDS011;2300;51.874;8.430;2023-07-20T03:46:14;43.53;;;33.85;;
4575;SDS011;2300;51.874;8.430;2023-07-20T03:48:42;48.78;;;34.97;;
4575;SDS011;2300;51.874;8.430;2023-07-20T03:51:08;43.88;;;35.08;;
4575;SDS011;2300;51.874;8.430;2023-07-20T03:53:35;49.00;;;35.17;;
4575;SDS011;2300;51.874;8.430;2023-07-20T03:56:01;45.75;;;33.60;;
4575;SDS011;2300;51.874;8.430;2023-07-20T03:58:28;40.78;;;31.98;;
4575;SDS011;2300;51.874;8.430;2023-07-20T04:00:57;42.30;;;31.38;;
4575;SDS011;2300;51.874;8.430;2023-07-20T04:03:23;41.53;;;32.42;;
4575;SDS011;2300;51.874;8.430;2023-07-20T04:05:54;41.25;;;31.90;;
4575;SDS011;2300;51.874;8.430;2023-07-20T04:08:22;45.55;;;31.42;;
4575;SDS011;2300;51.874;8.430;2023-07-20T04:10:49;43.35;;;32.30;;
4575;SDS011;2300;51.874;8.430;2023-07-20T04:13:16;38.92;;;32.22;;
4575;SDS011;2300;51.874;8.430;2023-07-20T04:15:43;43.92;;;31.63;;
4575;SDS011;2300;51.874;8.430;2023-07-20T04:18:09;43.63;;;31.05;;
4575;SDS011;2300;51.874;8.430;2023-07-20T04:20:36;40.65;;;32.38;;
4575;SDS011;2300;51.874;8.430;2023-07-20T04:23:04;42.30;;;31.38;;
4575;SDS011;2300;51.874;8.430;2023-07-20T04:25:30;40.78;;;30.80;;
4575;SDS011;2300;51.874;8.430;2023-07-20T04:28:03;42.58;;;32.03;;
4575;SDS011;2300;51.874;8.430;2023-07-20T04:30:33;36.83;;;31.45;;
4575;SDS011;2300;51.874;8.430;2023-07-20T04:33:00;37.30;;;30.35;;
4575;SDS011;2300;51.874;8.430;2023-07-20T04:35:46;35.20;;;28.65;;
4575;SDS011;2300;51.874;8.430;2023-07-20T04:38:16;37.42;;;29.40;;
4575;SDS011;2300;51.874;8.430;2023-07-20T04:40:43;33.35;;;28.00;;
4575;SDS011;2300;51.874;8.430;2023-07-20T04:43:10;30.55;;;26.10;;
4575;SDS011;2300;51.874;8.430;2023-07-20T04:45:37;30.50;;;25.58;;
4575;SDS011;2300;51.874;8.430;2023-07-20T04:48:05;28.85;;;24.85;;
4575;SDS011;2300;51.874;8.430;2023-07-20T04:50:34;24.92;;;20.08;;
4575;SDS011;2300;51.874;8.430;2023-07-20T04:53:01;20.90;;;17.58;;
4575;SDS011;2300;51.874;8.430;2023-07-20T04:55:29;18.92;;;16.58;;
4575;SDS011;2300;51.874;8.430;2023-07-20T04:57:58;19.25;;;16.73;;
4575;SDS011;2300;51.874;8.430;2023-07-20T05:00:25;19.60;;;17.08;;
4575;SDS011;2300;51.874;8.430;2023-07-20T05:02:51;15.50;;;13.80;;
4575;SDS011;2300;51.874;8.430;2023-07-20T05:05:18;20.10;;;13.77;;
4575;SDS011;2300;51.874;8.430;2023-07-20T05:07:44;20.38;;;13.85;;
4575;SDS011;2300;51.874;8.430;2023-07-20T05:10:11;16.23;;;13.40;;
4575;SDS011;2300;51.874;8.430;2023-07-20T05:12:39;15.85;;;13.05;;
4575;SDS011;2300;51.874;8.430;2023-07-20T05:15:06;14.15;;;12.63;;
4575;SDS011;2300;51.874;8.430;2023-07-20T05:17:33;13.02;;;11.73;;
4575;SDS011;2300;51.874;8.430;2023-07-20T05:19:59;16.77;;;12.07;;
4575;SDS011;2300;51.874;8.430;2023-07-20T05:22:26;15.55;;;11.95;;
4575;SDS011;2300;51.874;8.430;2023-07-20T05:24:53;14.73;;;11.27;;
4575;SDS011;2300;51.874;8.430;2023-07-20T05:27:19;12.60;;;11.20;;
4575;SDS011;2300;51.874;8.430;2023-07-20T05:29:47;13.07;;;11.65;;
4575;SDS011;2300;51.874;8.430;2023-07-20T05:32:14;12.52;;;10.68;;
4575;SDS011;2300;51.874;8.430;2023-07-20T05:34:40;12.82;;;11.20;;
4575;SDS011;2300;51.874;8.430;2023-07-20T05:37:07;15.18;;;12.52;;
4575;SDS011;2300;51.874;8.430;2023-07-20T05:39:33;13.25;;;11.65;;
4575;SDS011;2300;51.874;8.430;2023-07-20T05:42:00;14.38;;;11.80;;
4575;SDS011;2300;51.874;8.430;2023-07-20T05:44:27;10.60;;;8.77;;
4575;SDS011;2300;51.874;8.430;2023-07-20T05:46:55;12.45;;;8.35;;
4575;SDS011;2300;51.874;8.430;2023-07-20T05:49:21;8.95;;;8.05;;
4575;SDS011;2300;51.874;8.430;2023-07-20T05:51:48;9.20;;;8.18;;
4575;SDS011;2300;51.874;8.430;2023-07-20T05:54:14;8.95;;;8.02;;
4575;SDS011;2300;51.874;8.430;2023-07-20T05:56:41;9.70;;;7.57;;
4575;SDS011;2300;51.874;8.430;2023-07-20T05:59:07;8.45;;;7.55;;
4575;SDS011;2300;51.874;8.430;2023-07-20T06:01:34;8.45;;;7.20;;
4575;SDS011;2300;51.874;8.430;2023-07-20T06:04:03;10.77;;;8.10;;
4575;SDS011;2300;51.874;8.430;2023-07-20T06:06:29;12.52;;;10.07;;
4575;SDS011;2300;51.874;8.430;2023-07-20T06:08:56;12.05;;;10.63;;
4575;SDS011;2300;51.874;8.430;2023-07-20T06:11:23;14.50;;;10.40;;
4575;SDS011;2300;51.874;8.430;2023-07-20T06:13:49;13.52;;;11.40;;
4575;SDS011;2300;51.874;8.430;2023-07-20T06:16:16;15.18;;;11.60;;
4575;SDS011;2300;51.874;8.430;2023-07-20T06:18:42;15.60;;;11.45;;
4575;SDS011;2300;51.874;8.430;2023-07-20T06:21:11;13.80;;;11.20;;
4575;SDS011;2300;51.874;8.430;2023-07-20T06:23:38;11.60;;;10.13;;
4575;SDS011;2300;51.874;8.430;2023-07-20T06:26:05;13.10;;;11.35;;
4575;SDS011;2300;51.874;8.430;2023-07-20T06:28:32;11.32;;;7.45;;
4575;SDS011;2300;51.874;8.430;2023-07-20T06:30:59;5.85;;;2.97;;
4575;SDS011;2300;51.874;8.430;2023-07-20T06:33:26;2.97;;;1.88;;
4575;SDS011;2300;51.874;8.430;2023-07-20T06:35:52;4.00;;;1.95;;
4575;SDS011;2300;51.874;8.430;2023-07-20T06:38:20;3.45;;;2.15;;
4575;SDS011;2300;51.874;8.430;2023-07-20T06:40:48;4.57;;;3.10;;
4575;SDS011;2300;51.874;8.430;2023-07-20T06:43:15;3.50;;;1.90;;
4575;SDS011;2300;51.874;8.430;2023-07-20T06:45:42;4.57;;;1.52;;
4575;SDS011;2300;51.874;8.430;2023-07-20T06:48:08;4.70;;;2.38;;
4575;SDS011;2300;51.874;8.430;2023-07-20T06:50:35;4.70;;;3.03;;
4575;SDS011;2300;51.874;8.430;2023-07-20T06:53:01;7.25;;;3.90;;
4575;SDS011;2300;51.874;8.430;2023-07-20T06:55:30;5.22;;;3.13;;
4575;SDS011;2300;51.874;8.430;2023-07-20T06:57:57;4.32;;;2.45;;
4575;SDS011;2300;51.874;8.430;2023-07-20T07:00:23;5.60;;;3.05;;
4575;SDS011;2300;51.874;8.430;2023-07-20T07:02:50;5.82;;;3.92;;
4575;SDS011;2300;51.874;8.430;2023-07-20T07:05:17;5.28;;;3.20;;
4575;SDS011;2300;51.874;8.430;2023-07-20T07:07:44;5.70;;;3.40;;
4575;SDS011;2300;51.874;8.430;2023-07-20T07:10:10;5.15;;;3.58;;
4575;SDS011;2300;51.874;8.430;2023-07-20T07:12:38;5.40;;;3.30;;
4575;SDS011;2300;51.874;8.430;2023-07-20T07:15:05;10.32;;;4.88;;
4575;SDS011;2300;51.874;8.430;2023-07-20T07:17:32;5.82;;;4.38;;
4575;SDS011;2300;51.874;8.430;2023-07-20T07:20:00;5.40;;;3.97;;
4575;SDS011;2300;51.874;8.430;2023-07-20T07:22:26;6.28;;;3.95;;
4575;SDS011;2300;51.874;8.430;2023-07-20T07:24:54;5.30;;;3.17;;
4575;SDS011;2300;51.874;8.430;2023-07-20T07:27:21;4.28;;;2.03;;
4575;SDS011;2300;51.874;8.430;2023-07-20T07:29:49;4.47;;;2.70;;
4575;SDS011;2300;51.874;8.430;2023-07-20T07:32:15;4.85;;;3.05;;
4575;SDS011;2300;51.874;8.430;2023-07-20T07:34:43;3.00;;;1.70;;
4575;SDS011;2300;51.874;8.430;2023-07-20T07:37:11;2.92;;;1.90;;
4575;SDS011;2300;51.874;8.430;2023-07-20T07:39:38;3.83;;;1.00;;
4575;SDS011;2300;51.874;8.430;2023-07-20T07:42:05;2.08;;;1.08;;
4575;SDS011;2300;51.874;8.430;2023-07-20T07:44:32;2.22;;;1.00;;
4575;SDS011;2300;51.874;8.430;2023-07-20T07:46:59;2.38;;;1.02;;
4575;SDS011;2300;51.874;8.430;2023-07-20T07:49:26;3.13;;;1.25;;
4575;SDS011;2300;51.874;8.430;2023-07-20T07:51:53;2.83;;;1.65;;
4575;SDS011;2300;51.874;8.430;2023-07-20T07:54:19;2.53;;;1.20;;
4575;SDS011;2300;51.874;8.430;2023-07-20T07:56:46;2.78;;;1.23;;
4575;SDS011;2300;51.874;8.430;2023-07-20T07:59:12;2.30;;;1.20;;
4575;SDS011;2300;51.874;8.430;2023-07-20T08:01:39;2.95;;;1.05;;
4575;SDS011;2300;51.874;8.430;2023-07-20T08:04:07;2.85;;;1.30;;
4575;SDS011;2300;51.874;8.430;2023-07-20T08:06:37;3.80;;;1.33;;
4575;SDS011;2300;51.874;8.430;2023-07-20T08:09:05;6.57;;;1.40;;
4575;SDS011;2300;51.874;8.430;2023-07-20T08:11:32;2.30;;;1.13;;
4575;SDS011;2300;51.874;8.430;2023-07-20T08:13:59;3.35;;;1.23;;
4575;SDS011;2300;51.874;8.430;2023-07-20T08:16:26;3.70;;;1.05;;
4575;SDS011;2300;51.874;8.430;2023-07-20T08:18:52;2.15;;;0.77;;
4575;SDS011;2300;51.874;8.430;2023-07-20T08:21:20;4.05;;;1.02;;
4575;SDS011;2300;51.874;8.430;2023-07-20T08:23:47;2.65;;;1.00;;
4575;SDS011;2300;51.874;8.430;2023-07-20T08:26:13;1.20;;;0.60;;
4575;SDS011;2300;51.874;8.430;2023-07-20T08:28:40;2.83;;;0.85;;
4575;SDS011;2300;51.874;8.430;2023-07-20T08:31:06;2.50;;;0.90;;
4575;SDS011;2300;51.874;8.430;2023-07-20T08:33:33;2.92;;;1.00;;
4575;SDS011;2300;51.874;8.430;2023-07-20T08:36:00;6.47;;;4.18;;
4575;SDS011;2300;51.874;8.430;2023-07-20T08:38:29;2.63;;;1.70;;
4575;SDS011;2300;51.874;8.430;2023-07-20T08:40:56;1.52;;;0.80;;
4575;SDS011;2300;51.874;8.430;2023-07-20T08:43:25;1.65;;;0.75;;
4575;SDS011;2300;51.874;8.430;2023-07-20T08:45:52;1.90;;;1.15;;
4575;SDS011;2300;51.874;8.430;2023-07-20T08:48:21;3.03;;;1.10;;
4575;SDS011;2300;51.874;8.430;2023-07-20T08:50:49;2.40;;;1.30;;
4575;SDS011;2300;51.874;8.430;2023-07-20T08:53:17;1.38;;;0.60;;
4575;SDS011;2300;51.874;8.430;2023-07-20T08:55:45;1.33;;;0.45;;
4575;SDS011;2300;51.874;8.430;2023-07-20T08:58:16;1.88;;;0.80;;
4575;SDS011;2300;51.874;8.430;2023-07-20T09:00:43;1.30;;;0.60;;
4575;SDS011;2300;51.874;8.430;2023-07-20T09:03:10;1.45;;;0.65;;
4575;SDS011;2300;51.874;8.430;2023-07-20T09:05:37;2.47;;;0.90;;
4575;SDS011;2300;51.874;8.430;2023-07-20T09:08:05;1.52;;;0.70;;
4575;SDS011;2300;51.874;8.430;2023-07-20T09:10:31;1.65;;;0.93;;
4575;SDS011;2300;51.874;8.430;2023-07-20T09:12:59;3.83;;;0.80;;
4575;SDS011;2300;51.874;8.430;2023-07-20T09:15:26;1.77;;;0.70;;
4575;SDS011;2300;51.874;8.430;2023-07-20T09:17:52;2.53;;;1.00;;
4575;SDS011;2300;51.874;8.430;2023-07-20T09:20:20;3.55;;;0.77;;
4575;SDS011;2300;51.874;8.430;2023-07-20T09:22:47;2.72;;;0.77;;
4575;SDS011;2300;51.874;8.430;2023-07-20T09:25:16;4.72;;;0.88;;
4575;SDS011;2300;51.874;8.430;2023-07-20T09:27:45;2.83;;;0.68;;
4575;SDS011;2300;51.874;8.430;2023-07-20T09:30:15;1.70;;;0.68;;
4575;SDS011;2300;51.874;8.430;2023-07-20T09:32:44;2.45;;;0.60;;
4575;SDS011;2300;51.874;8.430;2023-07-20T09:35:14;1.27;;;0.47;;
4575;SDS011;2300;51.874;8.430;2023-07-20T09:37:46;1.67;;;0.82;;
4575;SDS011;2300;51.874;8.430;2023-07-20T09:40:17;2.58;;;0.60;;
4575;SDS011;2300;51.874;8.430;2023-07-20T09:42:44;0.47;;;0.30;;
4575;SDS011;2300;51.874;8.430;2023-07-20T09:45:11;2.40;;;0.50;;
4575;SDS011;2300;51.874;8.430;2023-07-20T09:47:39;1.33;;;0.60;;
4575;SDS011;2300;51.874;8.430;2023-07-20T09:50:08;1.38;;;0.43;;
4575;SDS011;2300;51.874;8.430;2023-07-20T09:52:38;1.55;;;0.50;;
4575;SDS011;2300;51.874;8.430;2023-07-20T09:55:06;1.05;;;0.50;;
4575;SDS011;2300;51.874;8.430;2023-07-20T09:57:34;1.88;;;0.65;;
4575;SDS011;2300;51.874;8.430;2023-07-20T10:00:02;4.38;;;0.90;;
4575;SDS011;2300;51.874;8.430;2023-07-20T10:02:34;3.28;;;0.80;;
4575;SDS011;2300;51.874;8.430;2023-07-20T10:05:08;4.30;;;0.80;;
4575;SDS011;2300;51.874;8.430;2023-07-20T10:07:40;4.70;;;0.90;;
4575;SDS011;2300;51.874;8.430;2023-07-20T10:10:10;1.55;;;0.60;;
4575;SDS011;2300;51.874;8.430;2023-07-20T10:12:37;3.95;;;0.93;;
4575;SDS011;2300;51.874;8.430;2023-07-20T10:15:08;2.22;;;0.60;;
4575;SDS011;2300;51.874;8.430;2023-07-20T10:17:40;3.70;;;0.70;;
4575;SDS011;2300;51.874;8.430;2023-07-20T10:20:17;4.10;;;0.60;;
4575;SDS011;2300;51.874;8.430;2023-07-20T10:22:47;1.60;;;0.60;;
4575;SDS011;2300;51.874;8.430;2023-07-20T10:25:15;2.95;;;0.80;;
4575;SDS011;2300;51.874;8.430;2023-07-20T10:27:42;1.10;;;0.50;;
4575;SDS011;2300;51.874;8.430;2023-07-20T10:30:09;2.55;;;0.60;;
4575;SDS011;2300;51.874;8.430;2023-07-20T10:32:36;1.45;;;0.60;;
4575;SDS011;2300;51.874;8.430;2023-07-20T10:35:11;1.67;;;0.70;;
4575;SDS011;2300;51.874;8.430;2023-07-20T10:37:51;1.75;;;0.70;;
4575;SDS011;2300;51.874;8.430;2023-07-20T10:43:07;0.80;;;0.75;;
4575;SDS011;2300;51.874;8.430;2023-07-20T10:45:35;2.03;;;0.80;;
4575;SDS011;2300;51.874;8.430;2023-07-20T10:48:03;2.22;;;0.90;;
4575;SDS011;2300;51.874;8.430;2023-07-20T10:50:31;1.52;;;0.88;;
4575;SDS011;2300;51.874;8.430;2023-07-20T10:53:11;1.35;;;0.80;;
4575;SDS011;2300;51.874;8.430;2023-07-20T10:55:39;3.17;;;0.60;;
4575;SDS011;2300;51.874;8.430;2023-07-20T10:58:06;1.95;;;0.70;;
4575;SDS011;2300;51.874;8.430;2023-07-20T11:00:33;1.33;;;0.73;;
4575;SDS011;2300;51.874;8.430;2023-07-20T11:03:00;2.10;;;0.80;;
4575;SDS011;2300;51.874;8.430;2023-07-20T11:05:37;1.70;;;1.02;;
4575;SDS011;2300;51.874;8.430;2023-07-20T11:08:05;1.75;;;0.93;;
4575;SDS011;2300;51.874;8.430;2023-07-20T11:10:36;1.60;;;1.00;;
4575;SDS011;2300;51.874;8.430;2023-07-20T11:13:16;2.97;;;0.90;;
4575;SDS011;2300;51.874;8.430;2023-07-20T11:15:47;2.60;;;1.40;;
4575;SDS011;2300;51.874;8.430;2023-07-20T11:18:27;1.95;;;1.38;;
4575;SDS011;2300;51.874;8.430;2023-07-20T11:20:55;2.08;;;1.33;;
4575;SDS011;2300;51.874;8.430;2023-07-20T11:23:22;2.20;;;1.20;;
4575;SDS011;2300;51.874;8.430;2023-07-20T11:25:50;1.83;;;1.33;;
4575;SDS011;2300;51.874;8.430;2023-07-20T11:28:17;2.78;;;1.67;;
4575;SDS011;2300;51.874;8.430;2023-07-20T11:30:43;1.90;;;1.55;;
4575;SDS011;2300;51.874;8.430;2023-07-20T11:33:10;2.67;;;1.98;;
4575;SDS011;2300;51.874;8.430;2023-07-20T11:35:41;3.45;;;2.50;;
4575;SDS011;2300;51.874;8.430;2023-07-20T11:38:08;2.40;;;2.20;;
4575;SDS011;2300;51.874;8.430;2023-07-20T11:40:35;2.88;;;1.92;;
4575;SDS011;2300;51.874;8.430;2023-07-20T11:43:03;3.50;;;1.98;;
4575;SDS011;2300;51.874;8.430;2023-07-20T11:45:30;3.25;;;1.98;;
4575;SDS011;2300;51.874;8.430;2023-07-20T11:47:58;2.53;;;2.10;;
4575;SDS011;2300;51.874;8.430;2023-07-20T11:50:25;2.83;;;2.40;;
4575;SDS011;2300;51.874;8.430;2023-07-20T11:52:51;4.78;;;2.15;;
4575;SDS011;2300;51.874;8.430;2023-07-20T11:55:18;2.40;;;2.13;;
4575;SDS011;2300;51.874;8.430;2023-07-20T11:58:00;3.30;;;2.00;;
4575;SDS011;2300;51.874;8.430;2023-07-20T12:00:28;2.45;;;1.98;;
4575;SDS011;2300;51.874;8.430;2023-07-20T12:02:55;2.13;;;1.92;;
4575;SDS011;2300;51.874;8.430;2023-07-20T12:05:22;3.47;;;1.67;;
4575;SDS011;2300;51.874;8.430;2023-07-20T12:07:49;3.08;;;1.10;;
4575;SDS011;2300;51.874;8.430;2023-07-20T12:10:22;1.35;;;1.00;;
4575;SDS011;2300;51.874;8.430;2023-07-20T12:12:50;2.50;;;1.35;;
4575;SDS011;2300;51.874;8.430;2023-07-20T12:15:17;2.63;;;1.40;;
4575;SDS011;2300;51.874;8.430;2023-07-20T12:17:50;1.73;;;1.48;;
4575;SDS011;2300;51.874;8.430;2023-07-20T12:20:24;2.05;;;1.30;;
4575;SDS011;2300;51.874;8.430;2023-07-20T12:22:51;1.20;;;1.10;;
4575;SDS011;2300;51.874;8.430;2023-07-20T12:25:19;3.42;;;1.20;;
4575;SDS011;2300;51.874;8.430;2023-07-20T12:27:47;1.60;;;1.27;;
4575;SDS011;2300;51.874;8.430;2023-07-20T12:30:14;1.75;;;1.10;;
4575;SDS011;2300;51.874;8.430;2023-07-20T12:32:40;1.23;;;1.00;;
4575;SDS011;2300;51.874;8.430;2023-07-20T12:35:09;1.05;;;0.90;;
4575;SDS011;2300;51.874;8.430;2023-07-20T12:37:36;2.40;;;0.90;;
4575;SDS011;2300;51.874;8.430;2023-07-20T12:40:03;2.15;;;0.50;;
4575;SDS011;2300;51.874;8.430;2023-07-20T12:42:36;0.73;;;0.70;;
4575;SDS011;2300;51.874;8.430;2023-07-20T12:45:03;1.92;;;0.70;;
4575;SDS011;2300;51.874;8.430;2023-07-20T12:47:30;2.35;;;0.60;;
4575;SDS011;2300;51.874;8.430;2023-07-20T12:49:58;0.75;;;0.45;;
4575;SDS011;2300;51.874;8.430;2023-07-20T12:52:25;1.05;;;0.57;;
4575;SDS011;2300;51.874;8.430;2023-07-20T12:54:52;0.90;;;0.57;;
4575;SDS011;2300;51.874;8.430;2023-07-20T12:57:19;1.10;;;0.50;;
4575;SDS011;2300;51.874;8.430;2023-07-20T12:59:45;1.70;;;0.50;;
4575;SDS011;2300;51.874;8.430;2023-07-20T13:02:12;1.90;;;0.70;;
4575;SDS011;2300;51.874;8.430;2023-07-20T13:04:38;1.73;;;0.50;;
4575;SDS011;2300;51.874;8.430;2023-07-20T13:07:09;2.83;;;0.57;;
4575;SDS011;2300;51.874;8.430;2023-07-20T13:09:38;5.35;;;0.77;;
4575;SDS011;2300;51.874;8.430;2023-07-20T13:12:05;1.30;;;0.60;;
4575;SDS011;2300;51.874;8.430;2023-07-20T13:14:32;0.70;;;0.45;;
4575;SDS011;2300;51.874;8.430;2023-07-20T13:16:59;1.02;;;0.47;;
4575;SDS011;2300;51.874;8.430;2023-07-20T13:19:25;0.57;;;0.40;;
4575;SDS011;2300;51.874;8.430;2023-07-20T13:21:52;1.88;;;0.55;;
4575;SDS011;2300;51.874;8.430;2023-07-20T13:24:18;2.45;;;0.70;;
4575;SDS011;2300;51.874;8.430;2023-07-20T13:26:46;2.00;;;0.75;;
4575;SDS011;2300;51.874;8.430;2023-07-20T13:29:13;1.23;;;0.40;;
4575;SDS011;2300;51.874;8.430;2023-07-20T13:31:40;0.93;;;0.40;;
4575;SDS011;2300;51.874;8.430;2023-07-20T13:34:06;0.80;;;0.30;;
4575;SDS011;2300;51.874;8.430;2023-07-20T13:36:33;0.60;;;0.35;;
4575;SDS011;2300;51.874;8.430;2023-07-20T13:39:00;1.08;;;0.32;;
4575;SDS011;2300;51.874;8.430;2023-07-20T13:41:26;0.85;;;0.30;;
4575;SDS011;2300;51.874;8.430;2023-07-20T13:43:54;0.82;;;0.50;;
4575;SDS011;2300;51.874;8.430;2023-07-20T13:46:21;2.72;;;0.40;;
4575;SDS011;2300;51.874;8.430;2023-07-20T13:48:48;2.38;;;0.28;;
4575;SDS011;2300;51.874;8.430;2023-07-20T13:51:14;0.95;;;0.40;;
4575;SDS011;2300;51.874;8.430;2023-07-20T13:53:41;0.73;;;0.40;;
4575;SDS011;2300;51.874;8.430;2023-07-20T13:56:08;0.85;;;0.40;;
4575;SDS011;2300;51.874;8.430;2023-07-20T13:58:34;0.43;;;0.30;;
4575;SDS011;2300;51.874;8.430;2023-07-20T14:01:03;0.70;;;0.28;;
4575;SDS011;2300;51.874;8.430;2023-07-20T14:03:30;0.88;;;0.40;;
4575;SDS011;2300;51.874;8.430;2023-07-20T14:05:56;0.40;;;0.40;;
4575;SDS011;2300;51.874;8.430;2023-07-20T14:08:23;1.08;;;0.40;;
4575;SDS011;2300;51.874;8.430;2023-07-20T14:10:49;0.50;;;0.40;;
4575;SDS011;2300;51.874;8.430;2023-07-20T14:13:16;0.73;;;0.40;;
4575;SDS011;2300;51.874;8.430;2023-07-20T14:15:42;0.73;;;0.43;;
4575;SDS011;2300;51.874;8.430;2023-07-20T14:18:11;1.35;;;0.32;;
4575;SDS011;2300;51.874;8.430;2023-07-20T14:20:37;0.57;;;0.30;;
4575;SDS011;2300;51.874;8.430;2023-07-20T14:23:04;0.52;;;0.40;;
4575;SDS011;2300;51.874;8.430;2023-07-20T14:25:31;1.77;;;0.43;;
4575;SDS011;2300;51.874;8.430;2023-07-20T14:27:57;0.40;;;0.35;;
4575;SDS011;2300;51.874;8.430;2023-07-20T14:30:24;0.90;;;0.32;;
4575;SDS011;2300;51.874;8.430;2023-07-20T14:32:51;1.23;;;0.45;;
4575;SDS011;2300;51.874;8.430;2023-07-20T14:35:19;1.35;;;0.40;;
4575;SDS011;2300;51.874;8.430;2023-07-20T14:37:47;1.80;;;0.45;;
4575;SDS011;2300;51.874;8.430;2023-07-20T14:40:15;2.03;;;0.50;;
4575;SDS011;2300;51.874;8.430;2023-07-20T14:42:42;1.05;;;0.45;;
4575;SDS011;2300;51.874;8.430;2023-07-20T14:45:08;0.55;;;0.30;;
4575;SDS011;2300;51.874;8.430;2023-07-20T14:47:35;0.57;;;0.40;;
4575;SDS011;2300;51.874;8.430;2023-07-20T14:50:02;0.70;;;0.35;;
4575;SDS011;2300;51.874;8.430;2023-07-20T14:52:30;1.67;;;0.40;;
4575;SDS011;2300;51.874;8.430;2023-07-20T14:54:57;1.92;;;0.50;;
4575;SDS011;2300;51.874;8.430;2023-07-20T14:57:23;1.73;;;0.30;;
4575;SDS011;2300;51.874;8.430;2023-07-20T14:59:50;2.50;;;0.45;;
4575;SDS011;2300;51.874;8.430;2023-07-20T15:02:17;0.65;;;0.43;;
4575;SDS011;2300;51.874;8.430;2023-07-20T15:04:47;0.60;;;0.35;;
4575;SDS011;2300;51.874;8.430;2023-07-20T15:07:14;1.27;;;0.30;;
4575;SDS011;2300;51.874;8.430;2023-07-20T15:09:42;1.15;;;0.40;;
4575;SDS011;2300;51.874;8.430;2023-07-20T15:12:09;1.00;;;0.40;;
4575;SDS011;2300;51.874;8.430;2023-07-20T15:14:35;1.45;;;0.60;;